sensor_id;sensor_type;location;lat;lon;timestamp;P1;durP1;ratioP1;P2;durP2;ratioP2
5945;SDS011;2998;48.206;16.394;2022-09-16T00:01:16;6.60;;;5.80;;
5945;SDS011;2998;48.206;16.394;2022-09-16T00:04:05;11.33;;;6.20;;
5945;SDS011;2998;48.206;16.394;2022-09-16T00:06:52;6.57;;;6.00;;
5945;SDS011;2998;48.206;16.394;2022-09-16T00:09:38;7.90;;;7.10;;
5945;SDS011;2998;48.206;16.394;2022-09-16T00:12:24;6.07;;;5.57;;
5945;SDS011;2998;48.206;16.394;2022-09-16T00:15:11;6.70;;;6.10;;
5945;SDS011;2998;48.206;16.394;2022-09-16T00:17:58;6.20;;;5.80;;
5945;SDS011;2998;48.206;16.394;2022-09-16T00:20:46;6.57;;;5.97;;
5945;SDS011;2998;48.206;16.394;2022-09-16T00:23:34;7.80;;;7.10;;
5945;SDS011;2998;48.206;16.394;2022-09-16T00:26:20;8.07;;;7.37;;
5945;SDS011;2998;48.206;16.394;2022-09-16T00:29:07;6.97;;;6.47;;
5945;SDS011;2998;48.206;16.394;2022-09-16T00:31:54;7.47;;;6.53;;
5945;SDS011;2998;48.206;16.394;2022-09-16T00:34:41;7.50;;;6.40;;
5945;SDS011;2998;48.206;16.394;2022-09-16T00:37:28;7.43;;;6.30;;
5945;SDS011;2998;48.206;16.394;2022-09-16T00:40:17;7.50;;;6.87;;
5945;SDS011;2998;48.206;16.394;2022-09-16T00:43:04;8.87;;;7.23;;
5945;SDS011;2998;48.206;16.394;2022-09-16T00:45:53;9.30;;;7.03;;
5945;SDS011;2998;48.206;16.394;2022-09-16T00:48:41;7.63;;;7.03;;
5945;SDS011;2998;48.206;16.394;2022-09-16T00:51:28;7.93;;;7.33;;
5945;SDS011;2998;48.206;16.394;2022-09-16T00:54:16;7.37;;;6.67;;
5945;SDS011;2998;48.206;16.394;2022-09-16T00:57:04;10.33;;;7.87;;
5945;SDS011;2998;48.206;16.394;2022-09-16T00:59:53;8.10;;;7.40;;
5945;SDS011;2998;48.206;16.394;2022-09-16T01:02:40;7.70;;;7.00;;
5945;SDS011;2998;48.206;16.394;2022-09-16T01:05:27;10.13;;;7.60;;
5945;SDS011;2998;48.206;16.394;2022-09-16T01:08:14;8.47;;;7.70;;
5945;SDS011;2998;48.206;16.394;2022-09-16T01:11:03;8.80;;;8.00;;
5945;SDS011;2998;48.206;16.394;2022-09-16T01:13:50;9.93;;;8.27;;
5945;SDS011;2998;48.206;16.394;2022-09-16T01:16:37;10.20;;;8.50;;
5945;SDS011;2998;48.206;16.394;2022-09-16T01:19:31;9.90;;;7.77;;
5945;SDS011;2998;48.206;16.394;2022-09-16T01:22:27;8.73;;;7.70;;
5945;SDS011;2998;48.206;16.394;2022-09-16T01:25:27;7.43;;;6.73;;
5945;SDS011;2998;48.206;16.394;2022-09-16T01:28:27;9.70;;;7.57;;
5945;SDS011;2998;48.206;16.394;2022-09-16T01:31:24;9.93;;;8.93;;
5945;SDS011;2998;48.206;16.394;2022-09-16T01:34:16;8.17;;;7.40;;
5945;SDS011;2998;48.206;16.394;2022-09-16T01:37:07;9.37;;;8.40;;
5945;SDS011;2998;48.206;16.394;2022-09-16T01:39:58;9.33;;;8.43;;
5945;SDS011;2998;48.206;16.394;2022-09-16T01:42:50;20.37;;;18.67;;
5945;SDS011;2998;48.206;16.394;2022-09-16T01:45:45;11.50;;;10.50;;
5945;SDS011;2998;48.206;16.394;2022-09-16T01:48:38;20.40;;;18.60;;
5945;SDS011;2998;48.206;16.394;2022-09-16T01:51:27;10.90;;;9.40;;
5945;SDS011;2998;48.206;16.394;2022-09-16T01:54:17;11.17;;;10.13;;
5945;SDS011;2998;48.206;16.394;2022-09-16T01:57:07;10.77;;;9.80;;
5945;SDS011;2998;48.206;16.394;2022-09-16T01:59:57;13.77;;;11.17;;
5945;SDS011;2998;48.206;16.394;2022-09-16T02:02:48;12.80;;;11.50;;
5945;SDS011;2998;48.206;16.394;2022-09-16T02:05:38;12.43;;;11.20;;
5945;SDS011;2998;48.206;16.394;2022-09-16T02:08:28;11.50;;;10.33;;
5945;SDS011;2998;48.206;16.394;2022-09-16T02:11:19;10.67;;;9.63;;
5945;SDS011;2998;48.206;16.394;2022-09-16T02:14:07;11.10;;;10.20;;
5945;SDS011;2998;48.206;16.394;2022-09-16T02:16:56;12.80;;;11.50;;
5945;SDS011;2998;48.206;16.394;2022-09-16T02:19:45;12.30;;;11.10;;
5945;SDS011;2998;48.206;16.394;2022-09-16T02:22:35;13.90;;;12.23;;
5945;SDS011;2998;48.206;16.394;2022-09-16T02:25:24;15.10;;;12.27;;
5945;SDS011;2998;48.206;16.394;2022-09-16T02:28:12;16.90;;;12.10;;
5945;SDS011;2998;48.206;16.394;2022-09-16T02:31:01;12.70;;;11.47;;
5945;SDS011;2998;48.206;16.394;2022-09-16T02:33:50;13.60;;;12.20;;
5945;SDS011;2998;48.206;16.394;2022-09-16T02:36:39;19.90;;;11.70;;
5945;SDS011;2998;48.206;16.394;2022-09-16T02:39:29;15.30;;;13.80;;
5945;SDS011;2998;48.206;16.394;2022-09-16T02:42:17;15.23;;;13.57;;
5945;SDS011;2998;48.206;16.394;2022-09-16T02:45:04;14.43;;;12.93;;
5945;SDS011;2998;48.206;16.394;2022-09-16T02:47:53;14.40;;;13.10;;
5945;SDS011;2998;48.206;16.394;2022-09-16T02:50:46;14.17;;;12.40;;
5945;SDS011;2998;48.206;16.394;2022-09-16T02:53:39;12.63;;;10.73;;
5945;SDS011;2998;48.206;16.394;2022-09-16T02:56:31;17.90;;;13.50;;
5945;SDS011;2998;48.206;16.394;2022-09-16T02:59:18;14.20;;;12.80;;
5945;SDS011;2998;48.206;16.394;2022-09-16T03:02:05;14.57;;;12.90;;
5945;SDS011;2998;48.206;16.394;2022-09-16T03:04:52;13.50;;;12.20;;
5945;SDS011;2998;48.206;16.394;2022-09-16T03:07:38;18.67;;;11.90;;
5945;SDS011;2998;48.206;16.394;2022-09-16T03:10:26;14.43;;;13.03;;
5945;SDS011;2998;48.206;16.394;2022-09-16T03:13:19;16.00;;;14.10;;
5945;SDS011;2998;48.206;16.394;2022-09-16T03:16:08;13.83;;;12.43;;
5945;SDS011;2998;48.206;16.394;2022-09-16T03:18:59;17.03;;;13.13;;
5945;SDS011;2998;48.206;16.394;2022-09-16T03:21:52;16.53;;;12.57;;
5945;SDS011;2998;48.206;16.394;2022-09-16T03:24:41;16.27;;;13.50;;
5945;SDS011;2998;48.206;16.394;2022-09-16T03:27:33;15.70;;;14.00;;
5945;SDS011;2998;48.206;16.394;2022-09-16T03:30:23;15.37;;;13.77;;
5945;SDS011;2998;48.206;16.394;2022-09-16T03:33:12;17.00;;;15.20;;
5945;SDS011;2998;48.206;16.394;2022-09-16T03:36:04;17.93;;;15.13;;
5945;SDS011;2998;48.206;16.394;2022-09-16T03:38:53;16.13;;;14.43;;
5945;SDS011;2998;48.206;16.394;2022-09-16T03:41:40;17.90;;;16.10;;
5945;SDS011;2998;48.206;16.394;2022-09-16T03:44:30;17.60;;;15.80;;
5945;SDS011;2998;48.206;16.394;2022-09-16T03:47:19;17.20;;;15.47;;
5945;SDS011;2998;48.206;16.394;2022-09-16T03:50:05;18.23;;;16.33;;
5945;SDS011;2998;48.206;16.394;2022-09-16T03:52:53;18.30;;;14.50;;
5945;SDS011;2998;48.206;16.394;2022-09-16T03:55:39;18.40;;;15.90;;
5945;SDS011;2998;48.206;16.394;2022-09-16T03:58:25;17.67;;;15.20;;
5945;SDS011;2998;48.206;16.394;2022-09-16T04:01:12;17.10;;;15.20;;
5945;SDS011;2998;48.206;16.394;2022-09-16T04:04:00;21.30;;;16.20;;
5945;SDS011;2998;48.206;16.394;2022-09-16T04:06:47;18.33;;;16.17;;
5945;SDS011;2998;48.206;16.394;2022-09-16T04:09:34;19.67;;;16.17;;
5945;SDS011;2998;48.206;16.394;2022-09-16T04:12:21;23.07;;;16.33;;
5945;SDS011;2998;48.206;16.394;2022-09-16T04:15:07;21.13;;;16.40;;
5945;SDS011;2998;48.206;16.394;2022-09-16T04:17:54;17.50;;;15.80;;
5945;SDS011;2998;48.206;16.394;2022-09-16T04:20:42;16.87;;;15.10;;
5945;SDS011;2998;48.206;16.394;2022-09-16T04:23:29;19.23;;;16.33;;
5945;SDS011;2998;48.206;16.394;2022-09-16T04:26:15;20.67;;;14.97;;
5945;SDS011;2998;48.206;16.394;2022-09-16T04:29:02;19.80;;;16.30;;
5945;SDS011;2998;48.206;16.394;2022-09-16T04:31:48;18.97;;;15.53;;
5945;SDS011;2998;48.206;16.394;2022-09-16T04:34:34;19.33;;;16.30;;
5945;SDS011;2998;48.206;16.394;2022-09-16T04:37:22;20.70;;;17.97;;
5945;SDS011;2998;48.206;16.394;2022-09-16T04:40:09;20.93;;;16.43;;
5945;SDS011;2998;48.206;16.394;2022-09-16T04:42:55;18.10;;;16.27;;
5945;SDS011;2998;48.206;16.394;2022-09-16T04:45:42;18.80;;;15.83;;
5945;SDS011;2998;48.206;16.394;2022-09-16T04:48:28;22.00;;;15.77;;
5945;SDS011;2998;48.206;16.394;2022-09-16T04:51:16;26.13;;;17.57;;
5945;SDS011;2998;48.206;16.394;2022-09-16T04:54:04;22.77;;;16.80;;
5945;SDS011;2998;48.206;16.394;2022-09-16T04:56:51;22.60;;;16.97;;
5945;SDS011;2998;48.206;16.394;2022-09-16T04:59:37;16.50;;;14.53;;
5945;SDS011;2998;48.206;16.394;2022-09-16T05:02:24;17.77;;;15.87;;
5945;SDS011;2998;48.206;16.394;2022-09-16T05:05:11;20.17;;;14.73;;
5945;SDS011;2998;48.206;16.394;2022-09-16T05:07:58;18.70;;;16.77;;
5945;SDS011;2998;48.206;16.394;2022-09-16T05:10:46;26.50;;;16.97;;
5945;SDS011;2998;48.206;16.394;2022-09-16T05:13:32;18.30;;;14.87;;
5945;SDS011;2998;48.206;16.394;2022-09-16T05:16:20;16.70;;;15.00;;
5945;SDS011;2998;48.206;16.394;2022-09-16T05:19:09;15.23;;;13.70;;
5945;SDS011;2998;48.206;16.394;2022-09-16T05:21:56;13.47;;;12.10;;
5945;SDS011;2998;48.206;16.394;2022-09-16T05:24:42;12.77;;;11.57;;
5945;SDS011;2998;48.206;16.394;2022-09-16T05:27:31;11.87;;;10.87;;
5945;SDS011;2998;48.206;16.394;2022-09-16T05:30:19;13.20;;;11.93;;
5945;SDS011;2998;48.206;16.394;2022-09-16T05:33:10;12.37;;;11.37;;
5945;SDS011;2998;48.206;16.394;2022-09-16T05:36:02;16.33;;;11.90;;
5945;SDS011;2998;48.206;16.394;2022-09-16T05:38:49;13.10;;;11.90;;
5945;SDS011;2998;48.206;16.394;2022-09-16T05:41:56;12.97;;;10.30;;
5945;SDS011;2998;48.206;16.394;2022-09-16T05:44:45;12.37;;;11.03;;
5945;SDS011;2998;48.206;16.394;2022-09-16T05:47:32;13.57;;;12.20;;
5945;SDS011;2998;48.206;16.394;2022-09-16T05:50:18;15.40;;;12.63;;
5945;SDS011;2998;48.206;16.394;2022-09-16T05:53:05;12.07;;;10.97;;
5945;SDS011;2998;48.206;16.394;2022-09-16T05:55:55;12.40;;;11.20;;
5945;SDS011;2998;48.206;16.394;2022-09-16T05:58:42;10.07;;;9.17;;
5945;SDS011;2998;48.206;16.394;2022-09-16T06:01:31;11.27;;;9.30;;
5945;SDS011;2998;48.206;16.394;2022-09-16T06:04:20;10.23;;;9.23;;
5945;SDS011;2998;48.206;16.394;2022-09-16T06:07:06;10.53;;;9.53;;
5945;SDS011;2998;48.206;16.394;2022-09-16T06:09:53;10.83;;;9.77;;
5945;SDS011;2998;48.206;16.394;2022-09-16T06:12:39;11.67;;;10.53;;
5945;SDS011;2998;48.206;16.394;2022-09-16T06:15:25;11.53;;;10.17;;
5945;SDS011;2998;48.206;16.394;2022-09-16T06:18:13;11.13;;;10.10;;
5945;SDS011;2998;48.206;16.394;2022-09-16T06:21:01;10.03;;;9.20;;
5945;SDS011;2998;48.206;16.394;2022-09-16T06:23:50;9.70;;;8.80;;
5945;SDS011;2998;48.206;16.394;2022-09-16T06:26:37;14.13;;;12.07;;
5945;SDS011;2998;48.206;16.394;2022-09-16T06:29:25;14.80;;;11.27;;
5945;SDS011;2998;48.206;16.394;2022-09-16T06:32:11;11.43;;;10.00;;
5945;SDS011;2998;48.206;16.394;2022-09-16T06:34:59;8.17;;;7.20;;
5945;SDS011;2998;48.206;16.394;2022-09-16T06:37:45;9.80;;;6.77;;
5945;SDS011;2998;48.206;16.394;2022-09-16T06:40:32;7.30;;;6.70;;
5945;SDS011;2998;48.206;16.394;2022-09-16T06:43:20;7.10;;;6.40;;
5945;SDS011;2998;48.206;16.394;2022-09-16T06:46:07;9.30;;;8.50;;
5945;SDS011;2998;48.206;16.394;2022-09-16T06:48:57;8.90;;;8.20;;
5945;SDS011;2998;48.206;16.394;2022-09-16T06:51:56;8.80;;;7.97;;
5945;SDS011;2998;48.206;16.394;2022-09-16T06:54:43;9.67;;;8.40;;
5945;SDS011;2998;48.206;16.394;2022-09-16T06:57:42;8.10;;;7.40;;
5945;SDS011;2998;48.206;16.394;2022-09-16T07:00:32;19.73;;;14.20;;
5945;SDS011;2998;48.206;16.394;2022-09-16T07:03:22;12.67;;;10.80;;
5945;SDS011;2998;48.206;16.394;2022-09-16T07:06:10;16.07;;;11.70;;
5945;SDS011;2998;48.206;16.394;2022-09-16T07:08:59;7.03;;;5.70;;
5945;SDS011;2998;48.206;16.394;2022-09-16T07:11:46;5.20;;;4.80;;
5945;SDS011;2998;48.206;16.394;2022-09-16T07:14:33;5.73;;;5.23;;
5945;SDS011;2998;48.206;16.394;2022-09-16T07:17:21;4.97;;;4.63;;
5945;SDS011;2998;48.206;16.394;2022-09-16T07:20:11;4.50;;;4.20;;
5945;SDS011;2998;48.206;16.394;2022-09-16T07:22:57;4.30;;;4.00;;
5945;SDS011;2998;48.206;16.394;2022-09-16T07:25:44;4.67;;;4.30;;
5945;SDS011;2998;48.206;16.394;2022-09-16T07:28:31;5.40;;;4.80;;
5945;SDS011;2998;48.206;16.394;2022-09-16T07:31:25;5.30;;;4.80;;
5945;SDS011;2998;48.206;16.394;2022-09-16T07:34:13;5.17;;;4.67;;
5945;SDS011;2998;48.206;16.394;2022-09-16T07:36:59;5.23;;;4.83;;
5945;SDS011;2998;48.206;16.394;2022-09-16T07:39:45;4.80;;;4.50;;
5945;SDS011;2998;48.206;16.394;2022-09-16T07:42:33;5.17;;;4.70;;
5945;SDS011;2998;48.206;16.394;2022-09-16T07:45:19;5.13;;;4.73;;
5945;SDS011;2998;48.206;16.394;2022-09-16T07:48:05;5.93;;;5.27;;
5945;SDS011;2998;48.206;16.394;2022-09-16T07:50:55;5.63;;;5.13;;
5945;SDS011;2998;48.206;16.394;2022-09-16T07:53:43;5.40;;;5.00;;
5945;SDS011;2998;48.206;16.394;2022-09-16T07:56:31;5.57;;;5.17;;
5945;SDS011;2998;48.206;16.394;2022-09-16T07:59:20;7.30;;;6.30;;
5945;SDS011;2998;48.206;16.394;2022-09-16T08:02:09;7.83;;;5.43;;
5945;SDS011;2998;48.206;16.394;2022-09-16T08:04:56;5.90;;;5.57;;
5945;SDS011;2998;48.206;16.394;2022-09-16T08:07:42;6.03;;;5.27;;
5945;SDS011;2998;48.206;16.394;2022-09-16T08:10:28;5.50;;;5.10;;
5945;SDS011;2998;48.206;16.394;2022-09-16T08:13:16;7.50;;;6.80;;
5945;SDS011;2998;48.206;16.394;2022-09-16T08:16:05;6.23;;;5.73;;
5945;SDS011;2998;48.206;16.394;2022-09-16T08:18:54;7.13;;;6.43;;
5945;SDS011;2998;48.206;16.394;2022-09-16T08:21:41;7.50;;;6.80;;
5945;SDS011;2998;48.206;16.394;2022-09-16T08:24:28;7.20;;;6.50;;
5945;SDS011;2998;48.206;16.394;2022-09-16T08:27:14;8.17;;;7.33;;
5945;SDS011;2998;48.206;16.394;2022-09-16T08:30:01;8.30;;;7.50;;
5945;SDS011;2998;48.206;16.394;2022-09-16T08:32:55;8.10;;;7.40;;
5945;SDS011;2998;48.206;16.394;2022-09-16T08:35:42;8.63;;;7.73;;
5945;SDS011;2998;48.206;16.394;2022-09-16T08:38:28;9.10;;;8.40;;
5945;SDS011;2998;48.206;16.394;2022-09-16T08:41:28;9.00;;;8.10;;
5945;SDS011;2998;48.206;16.394;2022-09-16T08:44:23;9.57;;;8.77;;
5945;SDS011;2998;48.206;16.394;2022-09-16T08:47:20;10.77;;;9.67;;
5945;SDS011;2998;48.206;16.394;2022-09-16T08:50:14;11.47;;;10.27;;
5945;SDS011;2998;48.206;16.394;2022-09-16T08:53:03;13.43;;;11.07;;
5945;SDS011;2998;48.206;16.394;2022-09-16T08:55:52;15.93;;;12.43;;
5945;SDS011;2998;48.206;16.394;2022-09-16T08:58:40;13.27;;;12.00;;
5945;SDS011;2998;48.206;16.394;2022-09-16T09:01:31;13.53;;;12.13;;
5945;SDS011;2998;48.206;16.394;2022-09-16T09:04:22;12.80;;;11.60;;
5945;SDS011;2998;48.206;16.394;2022-09-16T09:07:13;13.10;;;11.67;;
5945;SDS011;2998;48.206;16.394;2022-09-16T09:10:06;13.10;;;11.80;;
5945;SDS011;2998;48.206;16.394;2022-09-16T09:13:02;13.17;;;11.97;;
5945;SDS011;2998;48.206;16.394;2022-09-16T09:15:57;13.90;;;12.50;;
5945;SDS011;2998;48.206;16.394;2022-09-16T09:18:50;12.70;;;11.40;;
5945;SDS011;2998;48.206;16.394;2022-09-16T09:21:43;13.00;;;11.80;;
5945;SDS011;2998;48.206;16.394;2022-09-16T09:24:43;14.07;;;12.87;;
5945;SDS011;2998;48.206;16.394;2022-09-16T09:27:41;11.93;;;10.80;;
5945;SDS011;2998;48.206;16.394;2022-09-16T09:30:33;11.33;;;10.27;;
5945;SDS011;2998;48.206;16.394;2022-09-16T09:33:24;12.03;;;10.33;;
5945;SDS011;2998;48.206;16.394;2022-09-16T09:36:38;10.03;;;9.10;;
5945;SDS011;2998;48.206;16.394;2022-09-16T09:39:34;10.90;;;9.73;;
5945;SDS011;2998;48.206;16.394;2022-09-16T09:42:28;11.90;;;9.80;;
5945;SDS011;2998;48.206;16.394;2022-09-16T09:45:18;10.10;;;9.30;;
5945;SDS011;2998;48.206;16.394;2022-09-16T09:48:11;12.07;;;9.00;;
5945;SDS011;2998;48.206;16.394;2022-09-16T09:51:04;15.57;;;8.20;;
5945;SDS011;2998;48.206;16.394;2022-09-16T09:53:54;8.30;;;7.60;;
5945;SDS011;2998;48.206;16.394;2022-09-16T09:56:44;9.00;;;8.30;;
5945;SDS011;2998;48.206;16.394;2022-09-16T09:59:35;9.73;;;8.70;;
5945;SDS011;2998;48.206;16.394;2022-09-16T10:02:26;9.17;;;8.13;;
5945;SDS011;2998;48.206;16.394;2022-09-16T10:05:15;8.53;;;7.43;;
5945;SDS011;2998;48.206;16.394;2022-09-16T10:08:08;7.77;;;7.07;;
5945;SDS011;2998;48.206;16.394;2022-09-16T10:11:01;11.93;;;8.00;;
5945;SDS011;2998;48.206;16.394;2022-09-16T10:13:49;7.43;;;6.73;;
5945;SDS011;2998;48.206;16.394;2022-09-16T10:16:50;7.97;;;7.27;;
5945;SDS011;2998;48.206;16.394;2022-09-16T10:19:38;8.63;;;7.83;;
5945;SDS011;2998;48.206;16.394;2022-09-16T10:22:34;7.83;;;7.13;;
5945;SDS011;2998;48.206;16.394;2022-09-16T10:25:21;11.17;;;8.67;;
5945;SDS011;2998;48.206;16.394;2022-09-16T10:28:18;9.03;;;8.07;;
5945;SDS011;2998;48.206;16.394;2022-09-16T10:31:06;9.93;;;8.37;;
5945;SDS011;2998;48.206;16.394;2022-09-16T10:33:54;9.57;;;7.60;;
5945;SDS011;2998;48.206;16.394;2022-09-16T10:36:41;9.10;;;8.20;;
5945;SDS011;2998;48.206;16.394;2022-09-16T10:39:27;12.33;;;8.27;;
5945;SDS011;2998;48.206;16.394;2022-09-16T10:42:15;8.60;;;7.80;;
5945;SDS011;2998;48.206;16.394;2022-09-16T10:45:05;8.13;;;7.43;;
5945;SDS011;2998;48.206;16.394;2022-09-16T10:48:00;9.03;;;8.33;;
5945;SDS011;2998;48.206;16.394;2022-09-16T10:50:53;7.93;;;7.20;;
5945;SDS011;2998;48.206;16.394;2022-09-16T10:53:43;9.70;;;7.20;;
5945;SDS011;2998;48.206;16.394;2022-09-16T10:56:32;9.67;;;7.77;;
5945;SDS011;2998;48.206;16.394;2022-09-16T10:59:20;7.67;;;6.90;;
5945;SDS011;2998;48.206;16.394;2022-09-16T11:02:12;11.33;;;7.30;;
5945;SDS011;2998;48.206;16.394;2022-09-16T11:05:07;8.67;;;7.33;;
5945;SDS011;2998;48.206;16.394;2022-09-16T11:07:59;6.57;;;6.17;;
5945;SDS011;2998;48.206;16.394;2022-09-16T11:10:52;7.30;;;6.70;;
5945;SDS011;2998;48.206;16.394;2022-09-16T11:13:47;6.80;;;6.20;;
5945;SDS011;2998;48.206;16.394;2022-09-16T11:16:47;8.23;;;7.47;;
5945;SDS011;2998;48.206;16.394;2022-09-16T11:19:41;8.63;;;6.33;;
5945;SDS011;2998;48.206;16.394;2022-09-16T11:22:36;6.47;;;6.07;;
5945;SDS011;2998;48.206;16.394;2022-09-16T11:25:42;7.70;;;6.43;;
5945;SDS011;2998;48.206;16.394;2022-09-16T11:28:42;7.87;;;7.20;;
5945;SDS011;2998;48.206;16.394;2022-09-16T11:31:38;10.13;;;6.93;;
5945;SDS011;2998;48.206;16.394;2022-09-16T11:34:32;7.40;;;6.80;;
5945;SDS011;2998;48.206;16.394;2022-09-16T11:37:26;9.07;;;8.13;;
5945;SDS011;2998;48.206;16.394;2022-09-16T11:40:19;10.37;;;7.23;;
5945;SDS011;2998;48.206;16.394;2022-09-16T11:43:23;8.47;;;7.57;;
5945;SDS011;2998;48.206;16.394;2022-09-16T11:46:26;8.73;;;7.90;;
5945;SDS011;2998;48.206;16.394;2022-09-16T11:49:21;7.37;;;6.77;;
5945;SDS011;2998;48.206;16.394;2022-09-16T11:52:30;8.37;;;7.50;;
5945;SDS011;2998;48.206;16.394;2022-09-16T11:55:26;11.50;;;7.73;;
5945;SDS011;2998;48.206;16.394;2022-09-16T11:58:37;8.60;;;7.80;;
5945;SDS011;2998;48.206;16.394;2022-09-16T12:01:30;8.57;;;7.80;;
5945;SDS011;2998;48.206;16.394;2022-09-16T12:04:22;10.00;;;6.90;;
5945;SDS011;2998;48.206;16.394;2022-09-16T12:07:13;6.87;;;6.30;;
5945;SDS011;2998;48.206;16.394;2022-09-16T12:10:03;6.60;;;6.10;;
5945;SDS011;2998;48.206;16.394;2022-09-16T12:12:57;6.90;;;6.50;;
5945;SDS011;2998;48.206;16.394;2022-09-16T12:15:49;7.10;;;6.47;;
5945;SDS011;2998;48.206;16.394;2022-09-16T12:18:38;6.67;;;6.07;;
5945;SDS011;2998;48.206;16.394;2022-09-16T12:21:27;7.57;;;6.97;;
5945;SDS011;2998;48.206;16.394;2022-09-16T12:24:18;6.87;;;6.30;;
5945;SDS011;2998;48.206;16.394;2022-09-16T12:27:10;7.00;;;6.40;;
5945;SDS011;2998;48.206;16.394;2022-09-16T12:30:01;6.97;;;6.37;;
5945;SDS011;2998;48.206;16.394;2022-09-16T12:32:53;7.00;;;6.50;;
5945;SDS011;2998;48.206;16.394;2022-09-16T12:35:43;6.30;;;5.80;;
5945;SDS011;2998;48.206;16.394;2022-09-16T12:38:32;7.53;;;5.80;;
5945;SDS011;2998;48.206;16.394;2022-09-16T12:41:24;7.33;;;5.90;;
5945;SDS011;2998;48.206;16.394;2022-09-16T12:44:37;7.33;;;6.07;;
5945;SDS011;2998;48.206;16.394;2022-09-16T12:47:54;6.70;;;5.87;;
5945;SDS011;2998;48.206;16.394;2022-09-16T12:51:06;6.40;;;5.90;;
5945;SDS011;2998;48.206;16.394;2022-09-16T12:54:14;5.27;;;4.87;;
5945;SDS011;2998;48.206;16.394;2022-09-16T12:57:39;4.73;;;4.33;;
5945;SDS011;2998;48.206;16.394;2022-09-16T13:00:34;6.30;;;4.73;;
5945;SDS011;2998;48.206;16.394;2022-09-16T13:03:23;5.37;;;4.97;;
5945;SDS011;2998;48.206;16.394;2022-09-16T13:06:16;5.23;;;4.90;;
5945;SDS011;2998;48.206;16.394;2022-09-16T13:09:12;4.83;;;4.40;;
5945;SDS011;2998;48.206;16.394;2022-09-16T13:12:06;6.93;;;5.47;;
5945;SDS011;2998;48.206;16.394;2022-09-16T13:15:23;4.60;;;4.30;;
5945;SDS011;2998;48.206;16.394;2022-09-16T13:18:20;5.20;;;4.77;;
5945;SDS011;2998;48.206;16.394;2022-09-16T13:21:13;5.93;;;4.60;;
5945;SDS011;2998;48.206;16.394;2022-09-16T13:24:10;5.03;;;4.63;;
5945;SDS011;2998;48.206;16.394;2022-09-16T13:27:00;6.43;;;4.03;;
5945;SDS011;2998;48.206;16.394;2022-09-16T13:29:46;5.43;;;4.30;;
5945;SDS011;2998;48.206;16.394;2022-09-16T13:32:36;4.37;;;4.07;;
5945;SDS011;2998;48.206;16.394;2022-09-16T13:35:35;7.47;;;4.70;;
5945;SDS011;2998;48.206;16.394;2022-09-16T13:38:24;4.80;;;4.30;;
5945;SDS011;2998;48.206;16.394;2022-09-16T13:41:31;5.00;;;4.43;;
5945;SDS011;2998;48.206;16.394;2022-09-16T13:44:27;5.10;;;4.70;;
5945;SDS011;2998;48.206;16.394;2022-09-16T13:47:16;4.23;;;3.83;;
5945;SDS011;2998;48.206;16.394;2022-09-16T13:50:04;5.83;;;4.37;;
5945;SDS011;2998;48.206;16.394;2022-09-16T13:52:58;4.10;;;3.80;;
5945;SDS011;2998;48.206;16.394;2022-09-16T13:55:54;8.20;;;4.50;;
5945;SDS011;2998;48.206;16.394;2022-09-16T13:58:49;5.17;;;4.77;;
5945;SDS011;2998;48.206;16.394;2022-09-16T14:01:44;6.80;;;4.00;;
5945;SDS011;2998;48.206;16.394;2022-09-16T14:04:54;5.43;;;4.53;;
5945;SDS011;2998;48.206;16.394;2022-09-16T14:07:50;5.63;;;5.10;;
5945;SDS011;2998;48.206;16.394;2022-09-16T14:10:49;4.97;;;4.57;;
5945;SDS011;2998;48.206;16.394;2022-09-16T14:13:41;4.50;;;4.20;;
5945;SDS011;2998;48.206;16.394;2022-09-16T14:16:31;5.47;;;4.67;;
5945;SDS011;2998;48.206;16.394;2022-09-16T14:19:21;5.87;;;4.13;;
5945;SDS011;2998;48.206;16.394;2022-09-16T14:22:12;22.37;;;5.80;;
5945;SDS011;2998;48.206;16.394;2022-09-16T14:25:00;6.37;;;5.40;;
5945;SDS011;2998;48.206;16.394;2022-09-16T14:28:12;5.70;;;5.30;;
5945;SDS011;2998;48.206;16.394;2022-09-16T14:31:05;5.30;;;4.87;;
5945;SDS011;2998;48.206;16.394;2022-09-16T14:33:53;4.97;;;4.67;;
5945;SDS011;2998;48.206;16.394;2022-09-16T14:36:42;3.60;;;3.40;;
5945;SDS011;2998;48.206;16.394;2022-09-16T14:39:31;7.30;;;3.10;;
5945;SDS011;2998;48.206;16.394;2022-09-16T14:42:18;6.50;;;3.63;;
5945;SDS011;2998;48.206;16.394;2022-09-16T14:45:12;3.00;;;2.80;;
5945;SDS011;2998;48.206;16.394;2022-09-16T14:48:01;5.63;;;3.53;;
5945;SDS011;2998;48.206;16.394;2022-09-16T14:50:51;2.97;;;2.77;;
5945;SDS011;2998;48.206;16.394;2022-09-16T14:53:38;2.90;;;2.70;;
5945;SDS011;2998;48.206;16.394;2022-09-16T14:56:32;5.50;;;2.60;;
5945;SDS011;2998;48.206;16.394;2022-09-16T14:59:18;5.50;;;2.70;;
5945;SDS011;2998;48.206;16.394;2022-09-16T15:02:07;6.50;;;2.90;;
5945;SDS011;2998;48.206;16.394;2022-09-16T15:05:02;6.73;;;3.13;;
5945;SDS011;2998;48.206;16.394;2022-09-16T15:08:00;3.27;;;2.97;;
5945;SDS011;2998;48.206;16.394;2022-09-16T15:11:02;5.03;;;3.70;;
5945;SDS011;2998;48.206;16.394;2022-09-16T15:14:18;5.60;;;3.77;;
5945;SDS011;2998;48.206;16.394;2022-09-16T15:17:05;4.27;;;3.97;;
5945;SDS011;2998;48.206;16.394;2022-09-16T15:19:54;5.10;;;3.87;;
5945;SDS011;2998;48.206;16.394;2022-09-16T15:22:42;3.93;;;3.60;;
5945;SDS011;2998;48.206;16.394;2022-09-16T15:25:29;4.80;;;3.30;;
5945;SDS011;2998;48.206;16.394;2022-09-16T15:28:18;6.80;;;3.70;;
5945;SDS011;2998;48.206;16.394;2022-09-16T15:31:05;4.40;;;4.10;;
5945;SDS011;2998;48.206;16.394;2022-09-16T15:33:55;3.87;;;3.03;;
5945;SDS011;2998;48.206;16.394;2022-09-16T15:36:44;4.03;;;3.70;;
5945;SDS011;2998;48.206;16.394;2022-09-16T15:39:31;4.67;;;4.27;;
5945;SDS011;2998;48.206;16.394;2022-09-16T15:42:19;4.43;;;4.00;;
5945;SDS011;2998;48.206;16.394;2022-09-16T15:45:12;7.63;;;5.50;;
5945;SDS011;2998;48.206;16.394;2022-09-16T15:48:03;3.23;;;2.73;;
5945;SDS011;2998;48.206;16.394;2022-09-16T15:50:53;4.07;;;3.23;;
5945;SDS011;2998;48.206;16.394;2022-09-16T15:53:42;3.47;;;3.03;;
5945;SDS011;2998;48.206;16.394;2022-09-16T15:56:31;3.33;;;3.13;;
5945;SDS011;2998;48.206;16.394;2022-09-16T15:59:20;2.70;;;2.50;;
5945;SDS011;2998;48.206;16.394;2022-09-16T16:02:17;2.90;;;2.70;;
5945;SDS011;2998;48.206;16.394;2022-09-16T16:05:08;3.00;;;2.80;;
5945;SDS011;2998;48.206;16.394;2022-09-16T16:07:57;3.53;;;2.47;;
5945;SDS011;2998;48.206;16.394;2022-09-16T16:10:45;3.27;;;3.00;;
5945;SDS011;2998;48.206;16.394;2022-09-16T16:13:51;3.40;;;2.90;;
5945;SDS011;2998;48.206;16.394;2022-09-16T16:16:41;4.50;;;2.83;;
5945;SDS011;2998;48.206;16.394;2022-09-16T16:19:48;2.57;;;2.30;;
5945;SDS011;2998;48.206;16.394;2022-09-16T16:22:35;2.67;;;2.47;;
5945;SDS011;2998;48.206;16.394;2022-09-16T16:25:23;3.20;;;2.33;;
5945;SDS011;2998;48.206;16.394;2022-09-16T16:28:09;2.60;;;2.47;;
5945;SDS011;2998;48.206;16.394;2022-09-16T16:31:12;2.30;;;2.10;;
5945;SDS011;2998;48.206;16.394;2022-09-16T16:34:00;3.17;;;2.13;;
5945;SDS011;2998;48.206;16.394;2022-09-16T16:36:46;1.90;;;1.80;;
5945;SDS011;2998;48.206;16.394;2022-09-16T16:39:33;1.63;;;1.47;;
5945;SDS011;2998;48.206;16.394;2022-09-16T16:42:21;3.43;;;1.70;;
5945;SDS011;2998;48.206;16.394;2022-09-16T16:45:09;1.53;;;1.43;;
5945;SDS011;2998;48.206;16.394;2022-09-16T16:47:56;1.40;;;1.30;;
5945;SDS011;2998;48.206;16.394;2022-09-16T16:50:42;1.77;;;1.50;;
5945;SDS011;2998;48.206;16.394;2022-09-16T16:53:29;2.13;;;2.03;;
5945;SDS011;2998;48.206;16.394;2022-09-16T16:56:16;1.50;;;1.40;;
5945;SDS011;2998;48.206;16.394;2022-09-16T16:59:03;2.23;;;1.27;;
5945;SDS011;2998;48.206;16.394;2022-09-16T17:01:50;1.43;;;1.33;;
5945;SDS011;2998;48.206;16.394;2022-09-16T17:04:38;1.47;;;1.37;;
5945;SDS011;2998;48.206;16.394;2022-09-16T17:07:24;2.07;;;1.97;;
5945;SDS011;2998;48.206;16.394;2022-09-16T17:10:12;2.23;;;2.13;;
5945;SDS011;2998;48.206;16.394;2022-09-16T17:12:59;3.60;;;2.30;;
5945;SDS011;2998;48.206;16.394;2022-09-16T17:15:46;2.10;;;2.00;;